Weather at Nairobi Wilson Airport

Public forecast

Using degrees Celsius for public forecast. Weather courtesy of forecast.io.

Current aviation weather report (METAR) for Nairobi Wilson Airport

Retrieved 2022/08/13 13:00 UTC (1 hour ago):

HKNW 131300Z 07005KT 9999 BKN024 BKN080 21/13 Q1019

Aviation forecast (TAF) for Nairobi Wilson Airport

Forecast is more than 6 hours old.

Retrieved 2022/08/13 06:21 UTC (8 hours ago):

TAF HKNW 130500Z 1306/1406 16005KT 9999 SCT007 BKN015 BECMG 1302/1305 19005KT FEW008 BKN015 BECMG 1308/1311 12010KT BKN024 BECMG 1401/1404 VRB02KT FEW009 BKN017